Terminal Aerodrome Forecast
Issued by NWS

Home | Current Version | Previous Version | Graphics & Text | Print | Product List | Glossary On
Versions: 1 2 3 4 5 6 7 8 9 10 11 12 13 14 15 16 17 18 19 20 21 22 23 24 25
000
FTUS43 KLOT 182103 AAA
TAFMDW
TAF AMD
KMDW 182103Z 1821/1918 34019G30KT P6SM BKN015 OVC025
     FM190000 33018G28KT P6SM OVC025
     FM190600 32013G20KT P6SM BKN025
     FM191300 30012KT P6SM FEW020 SCT200=

USA.gov is the U.S. government's official web portal to all federal, state and local government web resources and services.